Hovedside
METAR-TAF:

METAR-TAF

Lufthavner :

Oljeplattform

D15-fa-1, Nederland

breddegrad: 54-19-32N, lengdegrad: 2-56-09E, høyde over havet: 36 m

Gjeldene værobservasjon

Denne rapporten ble laget for 23 minutter siden, klokken 04:25 UTC
Vind 14 kt fra Vest, skiftende mellom Vest-sørvest og Nordvest
Temperatur 14°C
Luftfuktighet 82%
Trykk 1010 hPa
Sikt 10 km eller mer

METAR: EHDV 150425Z AUTO 28014KT 240V310 9999 FEW004/// SCT009/// BKN012/// 14/11 Q1010

Tid: 06:48 (04:48 UTC)


TAF: fraværende

Værobservasjoner og værvarsel for over 4000 flyplasser (METAR- og TAF-rapporter).

Tilgjengelige stasjoner er representert av de røde og gule prikkene på kartet.

Hold musepekeren over prikken for å se navnet på stasjonen.

Klikk så for å se værobservasjoner og -varsler.

For å forandre kartet kan du klikke på den grønne knappen med svart kryss for å zoome inn, på den grønne knappen med strek for å zoome ut, eller på de grønne pilene for å se tilstøtende kart.


METAR-TAF: